createdAt,value
2018-04-19T00:00:21.898Z,98491.08
2018-04-19T00:02:49.447Z,98486.02
2018-04-19T00:05:16.958Z,98488.12
2018-04-19T00:07:44.482Z,98484.00
2018-04-19T00:10:12.152Z,98485.44
2018-04-19T00:12:39.667Z,98480.17
2018-04-19T00:15:07.210Z,98480.57
2018-04-19T00:17:35.100Z,98484.70
2018-04-19T00:20:02.604Z,98485.73
2018-04-19T00:22:30.133Z,98485.10
2018-04-19T00:24:57.876Z,98477.64
2018-04-19T00:27:25.542Z,98484.13
2018-04-19T00:29:53.055Z,98479.36
2018-04-19T00:32:20.766Z,98475.72
2018-04-19T00:34:48.276Z,98473.64
2018-04-19T00:37:15.788Z,98470.02
2018-04-19T00:39:43.344Z,98469.27
2018-04-19T00:42:10.850Z,98466.50
2018-04-19T00:44:38.380Z,98469.91
2018-04-19T00:47:05.968Z,98465.33
2018-04-19T00:49:33.479Z,98467.62
2018-04-19T00:52:01.001Z,98464.72
2018-04-19T00:54:28.847Z,98459.80
2018-04-19T00:56:56.368Z,98462.78
2018-04-19T00:59:23.883Z,98458.54
2018-04-19T01:01:51.575Z,98455.13
2018-04-19T01:04:19.090Z,98459.48
2018-04-19T01:06:46.599Z,98457.95
2018-04-19T01:09:14.359Z,98454.61
2018-04-19T01:11:41.878Z,98449.98
2018-04-19T01:14:09.403Z,98451.20
2018-04-19T01:16:37.247Z,98447.78
2018-04-19T01:19:04.767Z,98445.78
2018-04-19T01:21:32.288Z,98440.26
2018-04-19T01:24:00.022Z,98434.50
2018-04-19T01:26:27.543Z,98429.12
2018-04-19T01:28:55.061Z,98437.27
2018-04-19T01:31:23.011Z,98426.74
2018-04-19T01:33:50.535Z,98436.50
2018-04-19T01:36:27.135Z,98436.09
2018-04-19T01:38:54.654Z,98434.66
2018-04-19T01:41:22.177Z,98436.67
2018-04-19T01:43:50.123Z,98439.11
2018-04-19T01:46:17.635Z,98440.36
2018-04-19T01:48:45.151Z,98432.50
2018-04-19T01:51:12.706Z,98434.02
2018-04-19T01:53:40.228Z,98430.36
2018-04-19T01:56:07.768Z,98437.83
2018-04-19T01:58:35.324Z,98436.75
2018-04-19T02:01:02.839Z,98433.69
2018-04-19T02:03:30.368Z,98435.54
2018-04-19T02:05:58.056Z,98430.93
2018-04-19T02:08:25.583Z,98425.50
2018-04-19T02:10:53.097Z,98433.14
2018-04-19T02:13:20.651Z,98427.03
2018-04-19T02:15:48.162Z,98427.45
2018-04-19T02:18:15.677Z,98430.86
2018-04-19T02:20:43.227Z,98431.45
2018-04-19T02:23:10.744Z,98426.89
2018-04-19T02:25:38.277Z,98430.22
2018-04-19T02:28:05.839Z,98427.77
2018-04-19T02:30:33.359Z,98432.07
2018-04-19T02:33:01.162Z,98431.17
2018-04-19T02:35:28.978Z,98433.05
2018-04-19T02:37:56.489Z,98429.33
2018-04-19T02:40:24.008Z,98425.42
2018-04-19T02:42:51.555Z,98427.89
2018-04-19T02:45:19.081Z,98432.53
2018-04-19T02:47:46.599Z,98426.19
2018-04-19T02:50:14.152Z,98421.61
2018-04-19T02:52:41.663Z,98426.50
2018-04-19T02:55:09.175Z,98416.61
2018-04-19T02:57:36.872Z,98422.34
2018-04-19T03:00:04.451Z,98427.28
2018-04-19T03:02:31.967Z,98418.88
2018-04-19T03:04:59.690Z,98417.37
2018-04-19T03:07:27.194Z,98419.49
2018-04-19T03:09:54.710Z,98425.66
2018-04-19T03:12:22.407Z,98419.73
2018-04-19T03:14:49.921Z,98425.61
2018-04-19T03:17:17.436Z,98416.63
2018-04-19T03:19:45.151Z,98421.28
2018-04-19T03:22:12.668Z,98422.09
2018-04-19T03:24:40.179Z,98420.26
2018-04-19T03:27:07.919Z,98421.67
2018-04-19T03:29:35.433Z,98425.40
2018-04-19T03:32:02.946Z,98420.00
2018-04-19T03:34:30.907Z,98420.34
2018-04-19T03:36:58.414Z,98423.47
2018-04-19T03:39:25.932Z,98425.75
2018-04-19T03:41:53.484Z,98431.87
2018-04-19T03:44:20.994Z,98424.03
2018-04-19T03:46:48.539Z,98435.06
2018-04-19T03:49:16.095Z,98429.94
2018-04-19T03:51:43.613Z,98426.71
2018-04-19T03:54:11.127Z,98430.86
2018-04-19T03:56:38.674Z,98430.20
2018-04-19T03:59:06.179Z,98429.23
2018-04-19T04:01:33.691Z,98427.77
2018-04-19T04:04:01.415Z,98416.94
2018-04-19T04:06:28.928Z,98419.78
2018-04-19T04:08:56.448Z,98422.78
2018-04-19T04:11:24.404Z,98419.67
2018-04-19T04:13:52.397Z,98418.66
2018-04-19T04:16:31.790Z,98420.59
2018-04-19T04:22:15.055Z,98419.41
2018-04-19T04:24:42.564Z,98419.47
2018-04-19T04:27:10.083Z,98417.27
2018-04-19T04:29:37.620Z,98422.20
2018-04-19T04:32:05.341Z,98418.25
2018-04-19T04:34:32.855Z,98424.03
2018-04-19T04:37:01.363Z,98428.90
2018-04-19T04:39:28.895Z,98436.59
2018-04-19T04:41:56.411Z,98433.14
2018-04-19T04:44:24.106Z,98431.81
2018-04-19T04:46:51.620Z,98441.24
2018-04-19T04:49:19.126Z,98441.81
2018-04-19T04:51:46.785Z,98440.63
2018-04-19T04:54:14.305Z,98440.71
2018-04-19T04:56:41.818Z,98437.61
2018-04-19T04:59:09.738Z,98444.06
2018-04-19T05:01:37.725Z,98440.06
2018-04-19T05:04:05.235Z,98432.94
2018-04-19T05:06:32.963Z,98441.19
2018-04-19T05:09:00.474Z,98438.16
2018-04-19T05:11:27.989Z,98442.78
2018-04-19T05:13:55.665Z,98448.33
2018-04-19T05:16:23.214Z,98446.84
2018-04-19T05:18:50.727Z,98444.50
2018-04-19T05:21:18.291Z,98451.21
2018-04-19T05:23:45.798Z,98454.63
2018-04-19T05:26:13.378Z,98450.45
2018-04-19T05:28:41.099Z,98449.47
2018-04-19T05:31:08.616Z,98454.53
2018-04-19T05:33:36.130Z,98460.75
2018-04-19T05:36:03.884Z,98460.72
2018-04-19T05:38:31.397Z,98458.20
2018-04-19T05:40:58.925Z,98459.09
2018-04-19T05:43:26.668Z,98462.86
2018-04-19T05:45:54.175Z,98462.13
2018-04-19T05:48:21.687Z,98466.51
2018-04-19T05:50:49.552Z,98465.88
2018-04-19T05:53:17.070Z,98469.08
2018-04-19T05:55:44.583Z,98467.22
2018-04-19T05:58:12.327Z,98459.43
2018-04-19T06:00:39.844Z,98469.16
2018-04-19T06:03:07.398Z,98469.41
2018-04-19T06:05:35.205Z,98466.97
2018-04-19T06:08:02.721Z,98469.49
2018-04-19T06:10:30.259Z,98465.05
2018-04-19T06:12:58.193Z,98468.27
2018-04-19T06:15:25.711Z,98468.46
2018-04-19T06:17:53.237Z,98470.48
2018-04-19T06:20:20.974Z,98462.41
2018-04-19T06:22:48.478Z,98467.70
2018-04-19T06:25:16.523Z,98471.11
2018-04-19T06:27:44.372Z,98469.80
2018-04-19T06:30:11.891Z,98471.34
2018-04-19T06:32:39.418Z,98470.33
2018-04-19T06:35:07.144Z,98466.53
2018-04-19T06:37:34.663Z,98467.72
2018-04-19T06:40:02.175Z,98465.64
2018-04-19T06:42:29.727Z,98456.61
2018-04-19T06:44:57.259Z,98448.34
2018-04-19T06:47:24.767Z,98457.31
2018-04-19T06:49:52.294Z,98452.73
2018-04-19T06:52:19.807Z,98451.07
2018-04-19T06:54:47.311Z,98449.20
2018-04-19T06:57:15.184Z,98452.19
2018-04-19T06:59:42.697Z,98451.30
2018-04-19T07:02:13.451Z,98450.30
2018-04-19T07:04:41.751Z,98455.38
2018-04-19T07:07:09.261Z,98450.25
2018-04-19T07:09:36.776Z,98447.20
2018-04-19T07:12:04.636Z,98448.73
2018-04-19T07:14:32.142Z,98437.87
2018-04-19T07:16:59.656Z,98437.45
2018-04-19T07:19:27.480Z,98442.58
2018-04-19T07:21:55.039Z,98432.89
2018-04-19T07:24:22.554Z,98443.83
2018-04-19T07:26:50.110Z,98446.72
2018-04-19T07:29:17.733Z,98441.17
2018-04-19T07:31:45.245Z,98435.16
2018-04-19T07:34:13.246Z,98439.58
2018-04-19T07:36:40.776Z,98441.22
2018-04-19T07:39:08.717Z,98440.25
2018-04-19T07:41:36.239Z,98442.69
2018-04-19T07:44:03.754Z,98444.00
2018-04-19T07:46:31.275Z,98443.95
2018-04-19T07:48:58.823Z,98447.88
2018-04-19T07:51:26.358Z,98446.82
2018-04-19T07:53:53.872Z,98440.57
2018-04-19T07:56:21.879Z,98442.03
2018-04-19T07:58:49.445Z,98442.53
2018-04-19T08:01:16.972Z,98435.98
2018-04-19T08:03:44.643Z,98438.83
2018-04-19T08:06:12.831Z,98441.25
2018-04-19T08:08:40.359Z,98443.41
2018-04-19T08:11:07.906Z,98441.64
2018-04-19T08:13:35.412Z,98444.95
2018-04-19T08:16:03.229Z,98445.23
2018-04-19T08:18:30.993Z,98439.77
2018-04-19T08:20:58.512Z,98446.92
2018-04-19T08:23:26.553Z,98442.46
2018-04-19T08:25:54.271Z,98442.42
2018-04-19T08:28:21.779Z,98445.70
2018-04-19T08:30:49.280Z,98443.28
2018-04-19T08:33:16.821Z,98441.09
2018-04-19T08:35:44.335Z,98450.52
2018-04-19T08:38:11.843Z,98442.98
2018-04-19T08:40:39.531Z,98438.31
2018-04-19T08:43:07.049Z,98436.83
2018-04-19T08:45:34.548Z,98435.56
2018-04-19T08:48:02.528Z,98438.94
2018-04-19T08:50:30.032Z,98434.08
2018-04-19T08:52:57.542Z,98431.39
2018-04-19T08:55:25.299Z,98434.11
2018-04-19T08:57:52.827Z,98435.80
2018-04-19T09:00:20.333Z,98434.47
2018-04-19T09:02:48.053Z,98432.98
2018-04-19T09:05:15.776Z,98432.95
2018-04-19T09:07:43.316Z,98430.51
2018-04-19T09:10:10.963Z,98434.73
2018-04-19T09:12:38.725Z,98439.02
2018-04-19T09:15:06.236Z,98438.23
2018-04-19T09:17:33.951Z,98435.51
2018-04-19T09:20:01.469Z,98440.34
2018-04-19T09:22:28.974Z,98434.29
2018-04-19T09:24:57.766Z,98433.23
2018-04-19T09:27:25.343Z,98435.57
2018-04-19T09:29:52.851Z,98437.30
2018-04-19T09:32:20.404Z,98439.37
2018-04-19T09:34:47.916Z,98436.58
2018-04-19T09:37:15.420Z,98437.77
2018-04-19T09:39:43.107Z,98434.02
2018-04-19T09:42:10.630Z,98442.83
2018-04-19T09:44:38.135Z,98442.73
2018-04-19T09:47:06.100Z,98436.53
2018-04-19T09:49:33.604Z,98430.52
2018-04-19T09:52:01.104Z,98433.45
2018-04-19T09:54:28.800Z,98431.77
2018-04-19T09:56:56.298Z,98422.22
2018-04-19T09:59:24.332Z,98433.33
2018-04-19T10:01:52.167Z,98425.28
2018-04-19T10:04:26.314Z,98417.16
2018-04-19T10:06:53.851Z,98416.34
2018-04-19T10:09:21.366Z,98414.92
2018-04-19T10:11:48.870Z,98412.25
2018-04-19T10:14:16.423Z,98417.88
2018-04-19T10:16:43.926Z,98407.17
2018-04-19T10:19:11.436Z,98418.20
2018-04-19T10:21:38.965Z,98415.08
2018-04-19T10:24:06.459Z,98411.35
2018-04-19T10:26:33.959Z,98409.32
2018-04-19T10:29:01.767Z,98395.97
2018-04-19T10:31:29.287Z,98402.00
2018-04-19T10:33:56.790Z,98406.89
2018-04-19T10:36:24.330Z,98398.73
2018-04-19T10:38:52.860Z,98393.11
2018-04-19T10:41:20.371Z,98400.73
2018-04-19T10:43:47.912Z,98392.90
2018-04-19T10:46:15.416Z,98391.36
2018-04-19T10:48:43.917Z,98389.64
2018-04-19T10:51:11.459Z,98389.55
2018-04-19T10:53:38.959Z,98389.98
2018-04-19T10:56:06.458Z,98396.27
2018-04-19T10:58:34.280Z,98396.73
2018-04-19T11:01:01.813Z,98388.41
2018-04-19T11:03:29.883Z,98383.78
2018-04-19T11:05:57.406Z,98389.59
2018-04-19T11:08:27.991Z,98375.28
2018-04-19T11:10:55.540Z,98379.87
2018-04-19T11:13:24.203Z,98378.45
2018-04-19T11:15:53.010Z,98385.65
2018-04-19T11:18:21.350Z,98381.73
2018-04-19T11:20:49.245Z,98381.12
2018-04-19T11:23:17.120Z,98380.04
2018-04-19T11:25:46.489Z,98378.87
2018-04-19T11:28:14.491Z,98382.97
2018-04-19T11:30:43.030Z,98366.04
2018-04-19T11:33:10.532Z,98378.20
2018-04-19T11:35:38.875Z,98365.80
2018-04-19T11:38:06.391Z,98369.64
2018-04-19T11:40:34.345Z,98369.03
2018-04-19T11:43:02.064Z,98374.54
2018-04-19T11:45:29.586Z,98361.02
2018-04-19T11:47:57.083Z,98363.30
2018-04-19T11:50:24.953Z,98369.27
2018-04-19T11:52:52.472Z,98361.94
2018-04-19T11:55:22.148Z,98376.56
2018-04-19T11:57:49.995Z,98366.09
2018-04-19T12:00:17.507Z,98361.78
2018-04-19T12:02:46.155Z,98355.77
2018-04-19T12:05:13.692Z,98363.72
2018-04-19T12:07:42.080Z,98362.08
2018-04-19T12:10:09.581Z,98360.02
2018-04-19T12:12:37.612Z,98356.80
2018-04-19T12:15:05.124Z,98349.85
2018-04-19T12:17:32.747Z,98351.41
2018-04-19T12:20:00.648Z,98348.64
2018-04-19T12:22:28.167Z,98351.88
2018-04-19T12:24:55.673Z,98345.09
2018-04-19T12:27:23.211Z,98345.23
2018-04-19T12:29:50.952Z,98337.44
2018-04-19T12:32:18.480Z,98338.55
2018-04-19T12:34:47.906Z,98328.50
2018-04-19T12:37:15.415Z,98333.02
2018-04-19T12:39:43.780Z,98336.58
2018-04-19T12:42:11.495Z,98320.89
2018-04-19T12:44:39.149Z,98337.42
2018-04-19T12:47:06.776Z,98335.80
2018-04-19T12:49:34.695Z,98328.16
2018-04-19T12:52:02.246Z,98329.09
2018-04-19T12:54:29.756Z,98325.65
2018-04-19T12:56:58.102Z,98322.32
2018-04-19T12:59:25.700Z,98322.67
2018-04-19T13:01:53.604Z,98317.11
2018-04-19T13:04:21.460Z,98310.48
2018-04-19T13:06:50.431Z,98304.39
2018-04-19T13:09:17.933Z,98307.63
2018-04-19T13:11:45.780Z,98308.91
2018-04-19T13:14:13.772Z,98309.98
2018-04-19T13:16:42.261Z,98310.95
2018-04-19T13:19:10.026Z,98309.89
2018-04-19T13:21:37.605Z,98304.77
2018-04-19T13:24:06.063Z,98297.80
2018-04-19T13:26:33.651Z,98298.19
2018-04-19T13:29:01.591Z,98297.83
2018-04-19T13:31:29.179Z,98288.88
2018-04-19T13:33:56.722Z,98286.22
2018-04-19T13:36:24.739Z,98279.42
2018-04-19T13:38:52.248Z,98272.61
2018-04-19T13:41:20.176Z,98277.01
2018-04-19T13:43:47.745Z,98274.38
2018-04-19T13:46:15.261Z,98277.23
2018-04-19T13:48:42.990Z,98264.22
2018-04-19T13:51:11.163Z,98273.42
2018-04-19T13:53:38.705Z,98258.09
2018-04-19T13:56:06.452Z,98263.42
2018-04-19T13:58:34.455Z,98258.36
2018-04-19T14:01:01.997Z,98253.98
2018-04-19T14:03:29.780Z,98253.08
2018-04-19T14:05:58.670Z,98244.53
2018-04-19T14:08:26.333Z,98239.81
2018-04-19T14:10:54.300Z,98240.65
2018-04-19T14:13:21.921Z,98236.77
2018-04-19T14:15:49.623Z,98235.82
2018-04-19T14:18:17.594Z,98231.19
2018-04-19T14:20:45.459Z,98220.57
2018-04-19T14:23:12.988Z,98225.10
2018-04-19T14:25:41.296Z,98221.41
2018-04-19T14:28:09.160Z,98223.40
2018-04-19T14:30:37.335Z,98224.53
2018-04-19T14:33:05.210Z,98222.06
2018-04-19T14:35:32.773Z,98218.84
2018-04-19T14:38:00.361Z,98211.36
2018-04-19T14:40:28.301Z,98216.09
2018-04-19T14:42:56.416Z,98210.31
2018-04-19T14:45:23.950Z,98215.95
2018-04-19T14:47:51.595Z,98205.16
2018-04-19T14:50:19.107Z,98210.49
2018-04-19T14:52:46.615Z,98206.32
2018-04-19T14:55:14.234Z,98210.55
2018-04-19T14:57:41.796Z,98207.82
2018-04-19T15:00:09.308Z,98209.72
2018-04-19T15:02:37.096Z,98208.97
2018-04-19T15:05:04.705Z,98197.50
2018-04-19T15:07:32.442Z,98201.89
2018-04-19T15:10:00.039Z,98203.05
2018-04-19T15:12:27.576Z,98201.38
2018-04-19T15:14:55.147Z,98192.02
2018-04-19T15:17:22.956Z,98195.82
2018-04-19T15:19:50.817Z,98194.43
2018-04-19T15:22:18.387Z,98198.22
2018-04-19T15:24:46.319Z,98200.86
2018-04-19T15:27:14.778Z,98194.27
2018-04-19T15:29:42.659Z,98187.87
2018-04-19T15:32:10.489Z,98190.66
2018-04-19T15:34:38.209Z,98193.61
2018-04-19T15:37:05.744Z,98197.53
2018-04-19T15:39:33.483Z,98189.28
2018-04-19T15:42:01.175Z,98186.45
2018-04-19T15:44:28.707Z,98180.27
2018-04-19T15:46:57.377Z,98183.21
2018-04-19T15:49:25.130Z,98180.88
2018-04-19T15:51:52.670Z,98180.43
2018-04-19T15:54:21.911Z,98179.30
2018-04-19T15:56:50.494Z,98186.73
2018-04-19T15:59:18.025Z,98178.92
2018-04-19T16:01:45.959Z,98180.77
2018-04-19T16:04:13.489Z,98178.75
2018-04-19T16:06:41.500Z,98178.91
2018-04-19T16:09:09.131Z,98174.83
2018-04-19T16:11:36.691Z,98180.77
2018-04-19T16:14:04.253Z,98169.70
2018-04-19T16:16:31.807Z,98168.12
2018-04-19T16:18:59.481Z,98172.91
2018-04-19T16:21:27.019Z,98165.30
2018-04-19T16:23:55.309Z,98169.64
2018-04-19T16:26:24.302Z,98162.41
2018-04-19T16:28:53.006Z,98158.05
2018-04-19T16:31:20.815Z,98158.59
2018-04-19T16:33:48.614Z,98167.16
2018-04-19T16:36:16.170Z,98156.65
2018-04-19T16:38:43.967Z,98161.19
2018-04-19T16:41:11.523Z,98157.38
2018-04-19T16:43:39.129Z,98158.03
2018-04-19T16:46:06.755Z,98157.93
2018-04-19T16:48:34.378Z,98162.69
2018-04-19T16:51:02.245Z,98170.60
2018-04-19T16:53:30.527Z,98156.28
2018-04-19T16:55:58.249Z,98165.08
2018-04-19T16:58:26.218Z,98160.83
2018-04-19T17:00:54.026Z,98159.77
2018-04-19T17:03:21.782Z,98160.15
2018-04-19T17:05:49.665Z,98159.89
2018-04-19T17:08:18.439Z,98157.55
2018-04-19T17:10:46.203Z,98152.80
2018-04-19T17:13:13.933Z,98158.42
2018-04-19T17:15:42.040Z,98152.40
2018-04-19T17:18:10.011Z,98147.95
2018-04-19T17:20:38.589Z,98147.75
2018-04-19T17:23:06.457Z,98150.53
2018-04-19T17:25:34.314Z,98147.45
2018-04-19T17:28:02.841Z,98151.87
2018-04-19T17:30:31.301Z,98154.82
2018-04-19T17:32:59.663Z,98149.86
2018-04-19T17:35:27.326Z,98147.45
2018-04-19T17:37:55.193Z,98152.50
2018-04-19T17:40:22.944Z,98147.00
2018-04-19T17:42:50.824Z,98150.52
2018-04-19T17:45:18.691Z,98160.13
2018-04-19T17:47:46.846Z,98153.23
2018-04-19T17:50:14.729Z,98151.36
2018-04-19T17:52:42.802Z,98154.17
2018-04-19T17:55:10.670Z,98150.95
2018-04-19T17:57:38.744Z,98160.44
2018-04-19T18:00:07.083Z,98161.94
2018-04-19T18:02:34.985Z,98164.16
2018-04-19T18:05:02.958Z,98167.45
2018-04-19T18:07:31.035Z,98165.61
2018-04-19T18:09:59.916Z,98163.77
2018-04-19T18:12:27.783Z,98166.41
2018-04-19T18:14:55.661Z,98166.50
2018-04-19T18:17:23.388Z,98165.30
2018-04-19T18:19:51.484Z,98159.97
2018-04-19T18:22:19.514Z,98168.08
2018-04-19T18:24:47.731Z,98169.71
2018-04-19T18:27:15.497Z,98168.11
2018-04-19T18:29:43.669Z,98166.52
2018-04-19T18:32:11.538Z,98163.46
2018-04-19T18:34:39.922Z,98172.98
2018-04-19T18:37:08.769Z,98172.94
2018-04-19T18:39:36.567Z,98176.77
2018-04-19T18:42:04.665Z,98181.88
2018-04-19T18:44:33.018Z,98181.72
2018-04-19T18:47:00.885Z,98185.16
2018-04-19T18:49:28.857Z,98183.25
2018-04-19T18:51:56.828Z,98192.37
2018-04-19T18:54:24.695Z,98195.28
2018-04-19T18:56:52.557Z,98194.83
2018-04-19T18:59:20.629Z,98195.48
2018-04-19T19:01:48.495Z,98196.75
2018-04-19T19:04:16.773Z,98188.51
2018-04-19T19:06:45.355Z,98194.35
2018-04-19T19:09:13.279Z,98196.99
2018-04-19T19:11:41.238Z,98205.13
2018-04-19T19:14:09.158Z,98204.16
2018-04-19T19:16:37.044Z,98204.17
2018-04-19T19:19:17.952Z,98202.43
2018-04-19T19:21:45.865Z,98206.31
2018-04-19T19:24:13.875Z,98211.15
2018-04-19T19:26:42.316Z,98220.52
2018-04-19T19:29:10.283Z,98226.01
2018-04-19T19:31:38.002Z,98222.51
2018-04-19T19:34:05.810Z,98223.42
2018-04-19T19:36:33.679Z,98224.67
2018-04-19T19:39:01.647Z,98228.42
2018-04-19T19:41:30.336Z,98228.75
2018-04-19T19:43:58.202Z,98229.91
2018-04-19T19:46:26.975Z,98227.70
2018-04-19T19:48:55.225Z,98229.83
2018-04-19T19:51:23.213Z,98228.62
2018-04-19T19:53:50.889Z,98228.95
2018-04-19T19:56:19.022Z,98232.02
2018-04-19T19:58:47.248Z,98227.17
2018-04-19T20:01:15.117Z,98226.45
2018-04-19T20:03:43.703Z,98223.90
2018-04-19T20:06:11.560Z,98224.06
2018-04-19T20:08:39.632Z,98223.02
2018-04-19T20:11:08.010Z,98226.86
2018-04-19T20:13:35.683Z,98217.86
2018-04-19T20:16:03.538Z,98216.89
2018-04-19T20:18:31.682Z,98217.28
2018-04-19T20:20:59.550Z,98224.12
2018-04-19T20:23:27.445Z,98217.73
2018-04-19T20:25:55.725Z,98223.23
2018-04-19T20:28:23.587Z,98220.63
2018-04-19T20:30:51.454Z,98227.91
2018-04-19T20:33:19.283Z,98227.69
2018-04-19T20:35:48.722Z,98224.14
2018-04-19T20:38:16.590Z,98225.13
2018-04-19T20:40:44.663Z,98226.33
2018-04-19T20:43:13.195Z,98230.69
2018-04-19T20:45:40.971Z,98231.67
2018-04-19T20:48:08.765Z,98230.80
2018-04-19T20:50:36.640Z,98224.73
2018-04-19T20:53:05.016Z,98221.48
2018-04-19T20:55:33.191Z,98225.67
2018-04-19T20:58:00.954Z,98221.80
2018-04-19T21:00:28.820Z,98219.33
2018-04-19T21:02:56.617Z,98222.03
2018-04-19T21:05:24.761Z,98220.69
2018-04-19T21:07:52.625Z,98209.63
2018-04-19T21:10:20.493Z,98212.22
2018-04-19T21:12:48.464Z,98212.12
2018-04-19T21:15:16.350Z,98210.19
2018-04-19T21:17:44.092Z,98204.35
2018-04-19T21:20:11.857Z,98203.38
2018-04-19T21:22:39.724Z,98205.91
2018-04-19T21:25:07.794Z,98200.22
2018-04-19T21:27:35.437Z,98201.64
2018-04-19T21:30:03.325Z,98204.53
2018-04-19T21:32:31.082Z,98196.89
2018-04-19T21:34:58.855Z,98205.16
2018-04-19T21:37:26.719Z,98200.73
2018-04-19T21:39:54.462Z,98197.05
2018-04-19T21:42:22.005Z,98198.00
2018-04-19T21:44:49.510Z,98195.36
2018-04-19T21:47:17.464Z,98195.50
2018-04-19T21:49:44.973Z,98201.78
2018-04-19T21:52:12.657Z,98195.42
2018-04-19T21:54:40.428Z,98193.27
2018-04-19T21:57:07.940Z,98188.67
2018-04-19T21:59:35.468Z,98194.70
2018-04-19T22:02:03.012Z,98192.06
2018-04-19T22:04:31.335Z,98187.89
2018-04-19T22:07:00.707Z,98178.44
2018-04-19T22:09:28.260Z,98183.67
2018-04-19T22:11:55.782Z,98183.08
2018-04-19T22:14:23.301Z,98178.17
2018-04-19T22:16:50.855Z,98177.34
2018-04-19T22:19:18.523Z,98174.73
2018-04-19T22:21:46.219Z,98172.49
2018-04-19T22:24:13.760Z,98177.92
2018-04-19T22:26:42.938Z,98176.52
2018-04-19T22:29:11.417Z,98173.79
2018-04-19T22:31:40.727Z,98174.20
2018-04-19T22:34:09.391Z,98166.73
2018-04-19T22:36:38.782Z,98175.81
2018-04-19T22:39:06.608Z,98168.34
2018-04-19T22:41:34.135Z,98166.75
2018-04-19T22:44:01.640Z,98161.97
2018-04-19T22:46:30.040Z,98167.00
2018-04-19T22:48:57.712Z,98161.20
2018-04-19T22:51:25.227Z,98166.59
2018-04-19T22:53:52.799Z,98167.60
2018-04-19T22:56:20.314Z,98171.63
2018-04-19T22:58:47.850Z,98173.41
2018-04-19T23:01:15.922Z,98170.69
2018-04-19T23:03:43.423Z,98170.73
2018-04-19T23:06:10.937Z,98169.31
2018-04-19T23:08:38.829Z,98164.37
2018-04-19T23:11:06.359Z,98167.78
2018-04-19T23:13:33.880Z,98167.24
2018-04-19T23:16:01.522Z,98168.44
2018-04-19T23:18:29.035Z,98165.38
2018-04-19T23:20:56.542Z,98169.39
2018-04-19T23:23:24.447Z,98168.67
2018-04-19T23:25:51.963Z,98165.31
2018-04-19T23:28:19.587Z,98164.55
2018-04-19T23:30:47.320Z,98168.73
2018-04-19T23:33:14.821Z,98164.48
2018-04-19T23:35:42.441Z,98158.97
2018-04-19T23:38:10.208Z,98151.00
2018-04-19T23:40:37.715Z,98149.81
2018-04-19T23:43:05.234Z,98152.64
2018-04-19T23:45:33.086Z,98151.70
2018-04-19T23:48:00.600Z,98158.03
2018-04-19T23:50:28.107Z,98152.20
2018-04-19T23:52:55.642Z,98152.85
2018-04-19T23:55:23.153Z,98160.39
2018-04-19T23:57:50.663Z,98152.23
